Terminal Aerodrome Forecast
Issued by NWS

Home | Current Version | Previous Version | Text Only | Print | Product List | Glossary On
Versions: 1 2 3 4 5 6 7 8 9 10 11 12 13 14
000
FTUS42 TJSJ 021133
TAFKPK
TAF
TKPK 021133Z 0212/0312 08005KT P6SM VCSH SCT018
     FM021300 11013KT P6SM VCSH SCT020 SCT035
     FM022200 09009KT P6SM SCT028 SCT100
      AMD NOT SKED 0302/0311=

USA.gov is the U.S. government's official web portal to all federal, state and local government web resources and services.